Milwaukee, Wisconsin
Traffic Map
Current Weather Conditions
Milwaukee, Wisconsin
Scattered Clouds
Scattered Clouds
22°
Feels Like: 22°
Wind Chill: 22° Ceiling: Unl
Heat Index: 22° Visibility: 10mi
Dew Point: 19° Wind: 8mph
Humidity: 81% Direction: 250° (WSW)
Pressure: 29.84in Gusts: 0mph
Raw Report DataKMKE 020752Z 25007KT 10SM SCT150 22/19 A2984 RMK AO2 SLP100 T02220189
Traffic Incident Summary
Active as of:
Severity:
Category:
InformationThere was an issue retrieving the traffic information for this location. Please try a different location or try again shortly.
Advertisements
Track Severe Weather on mobile